Time;durP1;ratioP1;P1;durP2;ratioP2;P2;SDS_P1;SDS_P2;PMS_P1;PMS_P2;Temp;Humidity;BMP_temperature;BMP_pressure;BME280_temperature;BME280_humidity;BME280_pressure;Samples;Min_cycle;Max_cycle;Signal;HPM_P1;HPM_P2
2022/08/06 00:02:23;;;;;;;4.35;0.40;;;13.20;94.30;;;;;;5085643;28;20131;-79
2022/08/06 00:04:50;;;;;;;0.50;0.40;;;13.20;94.30;;;;;;5082655;28;20040;-79
2022/08/06 00:07:16;;;;;;;1.17;0.57;;;13.10;94.20;;;;;;5082649;28;20059;-79
2022/08/06 00:09:42;;;;;;;0.57;0.30;;;13.10;94.10;;;;;;5085939;28;20489;-78
2022/08/06 00:12:08;;;;;;;1.42;0.40;;;13.10;94.20;;;;;;5086417;28;20060;-78
2022/08/06 00:14:34;;;;;;;0.73;0.47;;;13.10;94.30;;;;;;5078656;28;20107;-79
2022/08/06 00:17:00;;;;;;;1.02;0.50;;;13.00;94.30;;;;;;5068789;28;20481;-79
2022/08/06 00:19:26;;;;;;;0.80;0.50;;;13.00;94.40;;;;;;5082069;28;20027;-78
2022/08/06 00:21:53;;;;;;;0.60;0.40;;;13.00;94.40;;;;;;5083173;28;20110;-78
2022/08/06 00:24:19;;;;;;;0.60;0.50;;;13.00;94.50;;;;;;5087482;28;20040;-79
2022/08/06 00:26:46;;;;;;;1.23;0.50;;;13.00;94.50;;;;;;5081382;28;20048;-78
2022/08/06 00:29:12;;;;;;;1.20;0.40;;;12.90;94.60;;;;;;5081411;28;20082;-79
2022/08/06 00:31:38;;;;;;;0.60;0.40;;;12.80;94.70;;;;;;5073920;28;20032;-79
2022/08/06 00:34:03;;;;;;;2.80;0.80;;;12.80;94.80;;;;;;5083743;28;20043;-78
2022/08/06 00:36:33;;;;;;;0.82;0.55;;;12.80;95.10;;;;;;5100430;28;20051;-78
2022/08/06 00:39:01;;;;;;;0.68;0.50;;;12.80;95.30;;;;;;5097959;28;20047;-79
2022/08/06 00:41:28;;;;;;;1.60;0.60;;;12.80;95.20;;;;;;5084496;28;20132;-79
2022/08/06 00:43:54;;;;;;;2.05;0.55;;;12.90;95.20;;;;;;5084187;28;20096;-78
2022/08/06 00:46:20;;;;;;;0.57;0.50;;;12.80;95.00;;;;;;5096489;27;20036;-79
2022/08/06 00:48:46;;;;;;;0.52;0.40;;;12.90;95.00;;;;;;5099339;28;20039;-79
2022/08/06 00:51:11;;;;;;;1.00;0.70;;;12.80;94.80;;;;;;5080846;28;20838;-79
2022/08/06 00:53:37;;;;;;;1.15;0.60;;;12.80;94.80;;;;;;5069327;28;20154;-79
2022/08/06 00:56:04;;;;;;;0.45;0.40;;;12.80;94.90;;;;;;5068718;28;20120;-79
2022/08/06 00:58:29;;;;;;;0.50;0.45;;;12.70;95.00;;;;;;5097679;28;20771;-79
2022/08/06 01:00:55;;;;;;;0.50;0.40;;;12.60;95.10;;;;;;5083809;28;20047;-79
2022/08/06 01:03:22;;;;;;;0.88;0.70;;;12.70;95.20;;;;;;5100000;28;20044;-79
2022/08/06 01:05:48;;;;;;;0.75;0.60;;;12.70;95.20;;;;;;5081676;28;20166;-79
2022/08/06 01:08:13;;;;;;;8.93;0.82;;;12.60;95.10;;;;;;5097821;28;20123;-79
2022/08/06 01:10:39;;;;;;;0.50;0.40;;;12.70;95.10;;;;;;5082893;28;20028;-79
2022/08/06 01:13:05;;;;;;;0.45;0.32;;;12.70;95.10;;;;;;5077260;28;20031;-78
2022/08/06 01:15:35;;;;;;;0.50;0.40;;;12.60;95.00;;;;;;5084445;28;20120;-79
2022/08/06 01:18:15;;;;;;;0.63;0.45;;;12.60;95.10;;;;;;5055779;28;20486;-79
2022/08/06 01:21:18;;;;;;;0.55;0.35;;;12.60;95.30;;;;;;5081281;28;20052;-79
2022/08/06 01:24:12;;;;;;;0.70;0.40;;;12.50;95.80;;;;;;5081572;28;20108;-79
2022/08/06 01:26:44;;;;;;;0.73;0.50;;;12.40;95.80;;;;;;5067220;28;20481;-79
2022/08/06 01:29:15;;;;;;;0.50;0.40;;;12.40;95.40;;;;;;5080748;28;20050;-79
2022/08/06 01:31:51;;;;;;;0.38;0.30;;;12.40;95.70;;;;;;5067477;28;20040;-79
2022/08/06 01:34:24;;;;;;;0.70;0.45;;;12.30;95.70;;;;;;5082503;28;20048;-79
2022/08/06 01:36:58;;;;;;;0.47;0.40;;;12.30;95.70;;;;;;5100242;28;20051;-79
2022/08/06 01:39:27;;;;;;;2.30;0.43;;;12.30;95.70;;;;;;5078876;28;20089;-79
2022/08/06 01:41:55;;;;;;;0.73;0.43;;;12.30;95.60;;;;;;5080803;28;20040;-79
2022/08/06 01:44:25;;;;;;;0.70;0.30;;;12.20;95.50;;;;;;5083070;28;20036;-79
2022/08/06 01:46:55;;;;;;;0.47;0.30;;;12.20;95.60;;;;;;5082918;28;21877;-79
2022/08/06 01:49:25;;;;;;;1.25;0.40;;;12.20;95.70;;;;;;5077621;28;20031;-78
2022/08/06 01:51:53;;;;;;;0.35;0.25;;;12.20;95.60;;;;;;5066165;28;20040;-78
2022/08/06 01:54:21;;;;;;;1.38;0.50;;;12.20;95.60;;;;;;5080404;28;20039;-79
2022/08/06 01:56:49;;;;;;;1.55;0.40;;;12.20;95.60;;;;;;5067543;28;20497;-78
2022/08/06 01:59:19;;;;;;;0.63;0.40;;;12.10;95.60;;;;;;5081797;28;20036;-78
2022/08/06 02:01:49;;;;;;;1.50;0.50;;;12.10;95.60;;;;;;5083121;28;20036;-78
2022/08/06 02:04:17;;;;;;;0.40;0.30;;;12.10;95.70;;;;;;5074003;28;20047;-79
2022/08/06 02:06:46;;;;;;;0.90;0.52;;;12.10;95.70;;;;;;5082157;28;20036;-78
2022/08/06 02:09:16;;;;;;;0.63;0.40;;;12.00;95.70;;;;;;5066562;28;20044;-78
2022/08/06 02:11:47;;;;;;;0.73;0.50;;;12.00;95.70;;;;;;5066610;28;20060;-79
2022/08/06 02:14:15;;;;;;;0.52;0.30;;;12.00;95.80;;;;;;5078006;28;20048;-78
2022/08/06 02:16:42;;;;;;;0.50;0.28;;;12.00;95.90;;;;;;5081547;28;20040;-78
2022/08/06 02:19:12;;;;;;;1.52;0.47;;;12.00;95.90;;;;;;5082066;28;20040;-79
2022/08/06 02:21:40;;;;;;;0.55;0.25;;;12.00;95.90;;;;;;5083160;28;20104;-79
2022/08/06 02:24:07;;;;;;;0.50;0.32;;;12.00;95.80;;;;;;5082880;28;20613;-78
2022/08/06 02:26:36;;;;;;;0.75;0.40;;;12.00;95.70;;;;;;5083620;28;20039;-78
2022/08/06 02:29:05;;;;;;;0.93;0.40;;;12.00;95.70;;;;;;5097007;28;20118;-79
2022/08/06 02:31:31;;;;;;;1.13;0.47;;;12.00;95.70;;;;;;5097884;28;20044;-79
2022/08/06 02:33:57;;;;;;;1.30;0.43;;;12.00;95.60;;;;;;5080748;28;20035;-78
2022/08/06 02:36:41;;;;;;;1.13;0.40;;;11.90;95.50;;;;;;5079217;28;20524;-78
2022/08/06 02:39:22;;;;;;;0.52;0.32;;;11.90;96.10;;;;;;5082607;28;20104;-78
2022/08/06 02:42:06;;;;;;;0.93;0.40;;;11.90;95.90;;;;;;5115141;27;20032;-78
2022/08/06 02:44:36;;;;;;;0.30;0.30;;;11.90;95.70;;;;;;5080330;28;20127;-78
2022/08/06 02:47:31;;;;;;;0.25;0.20;;;11.90;95.60;;;;;;5080332;28;20478;-78
2022/08/06 02:50:00;;;;;;;0.40;0.30;;;11.90;95.80;;;;;;5079066;28;20390;-78
2022/08/06 02:52:31;;;;;;;0.30;0.30;;;11.80;95.60;;;;;;5080932;28;20092;-78
2022/08/06 02:55:05;;;;;;;0.47;0.38;;;11.80;95.60;;;;;;5079520;28;20055;-78
2022/08/06 02:57:36;;;;;;;0.45;0.30;;;11.70;95.70;;;;;;5065572;28;20055;-78
2022/08/06 03:00:07;;;;;;;0.93;0.30;;;11.60;95.80;;;;;;5073020;28;20043;-77
2022/08/06 03:02:36;;;;;;;0.20;0.20;;;11.60;95.90;;;;;;5082468;28;20044;-78
2022/08/06 03:05:05;;;;;;;0.50;0.40;;;11.60;96.00;;;;;;5096821;28;20126;-78
2022/08/06 03:07:33;;;;;;;0.40;0.30;;;11.60;95.90;;;;;;5079484;28;20165;-78
2022/08/06 03:10:00;;;;;;;0.47;0.20;;;11.60;95.80;;;;;;5084008;28;20972;-78
2022/08/06 03:12:27;;;;;;;2.60;0.43;;;11.50;95.80;;;;;;5097817;28;20043;-78
2022/08/06 03:14:54;;;;;;;2.60;0.43;;;11.50;95.90;;;;;;5064012;28;20043;-78
2022/08/06 03:17:20;;;;;;;0.45;0.40;;;11.40;95.90;;;;;;5096648;28;20432;-78
2022/08/06 03:19:48;;;;;;;0.90;0.50;;;11.50;96.00;;;;;;5098002;28;20056;-78
2022/08/06 03:22:17;;;;;;;0.52;0.40;;;11.50;96.10;;;;;;5096631;28;20067;-78
2022/08/06 03:24:45;;;;;;;0.90;0.50;;;11.50;96.00;;;;;;5080100;28;20040;-78
2022/08/06 03:27:12;;;;;;;0.55;0.30;;;11.40;96.00;;;;;;5077273;28;20430;-78
2022/08/06 03:29:42;;;;;;;1.65;0.60;;;11.40;96.00;;;;;;5089951;28;20040;-78
2022/08/06 03:32:08;;;;;;;0.70;0.60;;;11.40;96.00;;;;;;5082415;28;20048;-78
2022/08/06 03:34:35;;;;;;;1.05;0.70;;;11.40;96.00;;;;;;5061580;28;20576;-78
2022/08/06 03:37:03;;;;;;;1.08;0.60;;;11.40;95.90;;;;;;5064826;28;20034;-78
2022/08/06 03:39:32;;;;;;;0.70;0.43;;;11.30;96.00;;;;;;5097425;28;20040;-78
2022/08/06 03:41:57;;;;;;;0.20;0.20;;;11.30;96.10;;;;;;5082527;28;20047;-78
2022/08/06 03:44:23;;;;;;;0.55;0.40;;;11.20;96.10;;;;;;5080330;28;20036;-78
2022/08/06 03:46:57;;;;;;;0.80;0.50;;;11.30;96.20;;;;;;5099528;28;20028;-78
2022/08/06 03:49:45;;;;;;;0.77;0.60;;;11.20;96.50;;;;;;5083305;28;20998;-78
2022/08/06 03:52:16;;;;;;;0.73;0.50;;;11.20;96.90;;;;;;5086336;28;20421;-77
2022/08/06 03:54:47;;;;;;;1.00;0.60;;;11.20;96.50;;;;;;5069490;28;20742;-78
2022/08/06 03:57:16;;;;;;;1.08;0.80;;;11.20;96.50;;;;;;5078280;28;20100;-78
2022/08/06 03:59:44;;;;;;;1.33;0.82;;;11.20;96.70;;;;;;5120574;27;20036;-78
2022/08/06 04:02:12;;;;;;;1.45;0.85;;;11.20;96.90;;;;;;5087202;28;20497;-78
2022/08/06 04:04:39;;;;;;;2.60;0.88;;;11.20;96.90;;;;;;5083739;28;20059;-77
2022/08/06 04:07:05;;;;;;;0.63;0.40;;;11.20;96.90;;;;;;5086199;28;20046;-77
2022/08/06 04:09:33;;;;;;;0.73;0.50;;;11.20;96.80;;;;;;5083819;28;20121;-78
2022/08/06 04:12:01;;;;;;;1.30;0.65;;;11.20;96.80;;;;;;5075873;28;20492;-77
2022/08/06 04:14:27;;;;;;;1.30;0.88;;;11.20;96.90;;;;;;5087146;28;20088;-78
2022/08/06 04:16:53;;;;;;;3.00;0.82;;;11.20;97.00;;;;;;5084203;28;20039;-78
2022/08/06 04:19:19;;;;;;;1.13;0.70;;;11.20;97.00;;;;;;5067208;28;20044;-76
2022/08/06 04:21:46;;;;;;;1.17;0.70;;;11.20;97.30;;;;;;5084814;28;20062;-77
2022/08/06 04:24:12;;;;;;;1.63;0.63;;;11.20;96.80;;;;;;5085373;28;20036;-77
2022/08/06 04:26:40;;;;;;;1.30;0.65;;;11.20;96.80;;;;;;5079217;28;20046;-77
2022/08/06 04:29:08;;;;;;;1.75;1.25;;;11.20;96.80;;;;;;5086145;28;20028;-77
2022/08/06 04:31:35;;;;;;;0.98;0.55;;;11.20;96.80;;;;;;5085400;28;20119;-78
2022/08/06 04:34:01;;;;;;;2.30;0.90;;;11.20;96.70;;;;;;5067690;28;20031;-77
2022/08/06 04:36:28;;;;;;;0.85;0.50;;;11.20;96.70;;;;;;5086734;28;20048;-77
2022/08/06 04:38:54;;;;;;;0.75;0.57;;;11.20;96.70;;;;;;5083288;28;20074;-77
2022/08/06 04:41:21;;;;;;;1.23;0.77;;;11.10;96.80;;;;;;5078710;28;22039;-77
2022/08/06 04:43:47;;;;;;;0.77;0.47;;;11.10;96.90;;;;;;5083657;28;20533;-77
2022/08/06 04:46:13;;;;;;;2.00;0.70;;;11.10;97.00;;;;;;5082412;28;20382;-77
2022/08/06 04:48:38;;;;;;;1.65;0.80;;;11.10;97.10;;;;;;5098184;27;20092;-77
2022/08/06 04:51:05;;;;;;;0.93;0.60;;;11.20;97.20;;;;;;5082668;28;20400;-77
2022/08/06 04:53:41;;;;;;;1.33;0.75;;;11.20;97.10;;;;;;5085960;28;20047;-77
2022/08/06 04:56:07;;;;;;;1.73;0.60;;;11.40;97.30;;;;;;5082491;28;20062;-77
2022/08/06 04:58:34;;;;;;;1.73;0.95;;;11.40;97.00;;;;;;5085435;28;20031;-77
2022/08/06 05:01:00;;;;;;;1.55;0.88;;;11.40;97.00;;;;;;5082421;28;20035;-77
2022/08/06 05:03:26;;;;;;;1.20;0.80;;;11.40;97.00;;;;;;5093905;27;20048;-77
2022/08/06 05:06:12;;;;;;;0.82;0.50;;;11.40;97.00;;;;;;5097890;28;20055;-78
2022/08/06 05:08:41;;;;;;;1.90;0.80;;;11.40;97.50;;;;;;5083226;28;20032;-77
2022/08/06 05:11:18;;;;;;;1.00;0.60;;;11.50;97.20;;;;;;5083714;28;20523;-77
2022/08/06 05:13:46;;;;;;;0.82;0.45;;;11.40;97.20;;;;;;5080818;28;20054;-77
2022/08/06 05:16:14;;;;;;;1.73;0.80;;;11.50;97.20;;;;;;5066803;28;20040;-77
2022/08/06 05:18:44;;;;;;;1.10;0.65;;;11.50;97.30;;;;;;5080609;28;20491;-77
2022/08/06 05:21:14;;;;;;;1.73;0.80;;;11.50;97.30;;;;;;5083896;28;20048;-77
2022/08/06 05:23:49;;;;;;;0.93;0.60;;;11.60;97.40;;;;;;5058048;28;20497;-77
2022/08/06 05:26:15;;;;;;;0.98;0.57;;;11.60;97.80;;;;;;5084594;28;20051;-78
2022/08/06 05:28:41;;;;;;;1.48;0.88;;;11.60;97.70;;;;;;5099408;28;20546;-77
2022/08/06 05:31:07;;;;;;;0.95;0.50;;;11.60;97.70;;;;;;5066430;28;20501;-77
2022/08/06 05:33:38;;;;;;;0.80;0.57;;;11.70;97.80;;;;;;5065397;28;20051;-77
2022/08/06 05:36:06;;;;;;;1.42;0.77;;;11.70;97.90;;;;;;5083269;28;20500;-77
2022/08/06 05:38:35;;;;;;;0.65;0.45;;;11.70;98.20;;;;;;5082560;28;20048;-77
2022/08/06 05:41:01;;;;;;;0.80;0.55;;;11.70;98.40;;;;;;5083415;28;20036;-77
2022/08/06 05:43:27;;;;;;;2.88;1.10;;;11.80;98.50;;;;;;5097500;28;20047;-77
2022/08/06 05:46:04;;;;;;;0.73;0.60;;;11.90;98.90;;;;;;5084727;28;20032;-77
2022/08/06 05:48:34;;;;;;;1.77;0.60;;;12.30;98.90;;;;;;5081270;28;20039;-77
2022/08/06 05:51:08;;;;;;;1.38;0.63;;;12.40;98.10;;;;;;5083446;28;20637;-77
2022/08/06 05:53:44;;;;;;;1.40;0.85;;;12.50;98.20;;;;;;5078042;28;20047;-77
2022/08/06 05:56:15;;;;;;;0.52;0.38;;;12.60;98.70;;;;;;5094126;28;20051;-77
2022/08/06 05:58:55;;;;;;;0.75;0.52;;;12.60;98.60;;;;;;5087481;28;20099;-77
2022/08/06 06:01:22;;;;;;;1.48;0.63;;;12.60;99.50;;;;;;5099789;27;20040;-77
2022/08/06 06:03:50;;;;;;;0.98;0.45;;;12.60;99.10;;;;;;5082313;28;20040;-77
2022/08/06 06:06:16;;;;;;;0.75;0.47;;;12.60;99.30;;;;;;5083354;28;20135;-77
2022/08/06 06:08:42;;;;;;;0.60;0.30;;;12.70;99.40;;;;;;5080481;28;20127;-77
2022/08/06 06:11:09;;;;;;;0.73;0.43;;;12.70;99.50;;;;;;5084213;28;20112;-77
2022/08/06 06:13:36;;;;;;;1.40;0.63;;;12.70;99.60;;;;;;5083547;28;20039;-77
2022/08/06 06:16:27;;;;;;;0.80;0.52;;;12.80;99.60;;;;;;5076862;28;20048;-77
2022/08/06 06:19:15;;;;;;;0.40;0.30;;;12.90;99.90;;;;;;5055280;28;20058;-77
2022/08/06 06:22:03;;;;;;;0.52;0.40;;;13.00;99.90;;;;;;5100078;28;20098;-77
2022/08/06 06:24:52;;;;;;;1.02;0.40;;;13.00;99.80;;;;;;5077924;28;20126;-76
2022/08/06 06:27:29;;;;;;;0.85;0.40;;;13.10;99.90;;;;;;5083220;28;20040;-77
2022/08/06 06:30:06;;;;;;;0.77;0.40;;;13.20;99.90;;;;;;5081162;28;20030;-77
2022/08/06 06:32:48;;;;;;;0.50;0.30;;;13.30;99.90;;;;;;5071789;28;20050;-77
2022/08/06 06:35:35;;;;;;;1.75;0.50;;;13.40;99.90;;;;;;5100156;28;20044;-76
2022/08/06 06:38:27;;;;;;;0.38;0.20;;;13.80;99.90;;;;;;5083004;28;20125;-77
2022/08/06 06:41:16;;;;;;;0.90;0.43;;;15.00;99.30;;;;;;5098918;28;20035;-77
2022/08/06 06:43:53;;;;;;;0.28;0.20;;;16.70;96.40;;;;;;5079660;28;20379;-77
2022/08/06 06:46:27;;;;;;;2.47;0.30;;;17.80;93.40;;;;;;5082121;28;20074;-77
2022/08/06 06:48:59;;;;;;;1.60;0.20;;;17.80;92.90;;;;;;5080283;28;20036;-78
2022/08/06 06:51:33;;;;;;;0.20;0.20;;;17.60;93.80;;;;;;5079269;28;20089;-77
2022/08/06 06:53:59;;;;;;;0.93;0.30;;;17.30;94.90;;;;;;5097549;28;20047;-79
2022/08/06 06:56:36;;;;;;;1.65;0.20;;;17.10;95.50;;;;;;5084412;28;20089;-78
2022/08/06 06:59:07;;;;;;;1.05;0.20;;;16.90;96.10;;;;;;5057444;28;20089;-78
2022/08/06 07:01:34;;;;;;;0.77;0.30;;;16.60;96.50;;;;;;5064974;28;20339;-79
2022/08/06 07:04:04;;;;;;;0.70;0.30;;;16.50;97.10;;;;;;5080968;28;20044;-79
2022/08/06 07:06:32;;;;;;;0.43;0.30;;;16.30;97.40;;;;;;5075429;28;20040;-80
2022/08/06 07:08:59;;;;;;;0.10;0.10;;;16.20;97.80;;;;;;5083549;28;20577;-80
2022/08/06 07:11:27;;;;;;;0.30;0.20;;;16.10;98.00;;;;;;5109179;28;20462;-78
2022/08/06 07:13:56;;;;;;;0.65;0.20;;;16.10;98.00;;;;;;5081503;28;20406;-79
2022/08/06 07:16:24;;;;;;;0.55;0.13;;;16.00;98.00;;;;;;5082115;28;20046;-80
2022/08/06 07:18:53;;;;;;;0.73;0.20;;;16.00;98.10;;;;;;5082397;28;20043;-79
2022/08/06 07:21:20;;;;;;;0.28;0.20;;;16.00;97.90;;;;;;5059552;28;20051;-79
2022/08/06 07:23:50;;;;;;;0.10;0.10;;;16.00;98.10;;;;;;5085087;28;20080;-79
2022/08/06 07:26:18;;;;;;;0.40;0.20;;;16.10;97.90;;;;;;5086889;28;20042;-79
2022/08/06 07:28:46;;;;;;;0.55;0.20;;;16.00;97.50;;;;;;5099011;28;20044;-79
2022/08/06 07:31:12;;;;;;;0.43;0.13;;;16.10;97.30;;;;;;5059220;28;20131;-77
2022/08/06 07:33:40;;;;;;;0.17;0.17;;;16.10;97.30;;;;;;5099938;27;20040;-77
2022/08/06 07:36:07;;;;;;;0.22;0.10;;;16.10;97.50;;;;;;5083714;28;20508;-78
2022/08/06 07:38:34;;;;;;;0.15;0.10;;;16.20;97.20;;;;;;5083136;28;20032;-69
2022/08/06 07:41:03;;;;;;;0.63;0.22;;;16.30;97.00;;;;;;5062438;28;20051;-77
2022/08/06 07:43:43;;;;;;;0.40;0.20;;;16.30;96.80;;;;;;5087100;28;20115;-77
2022/08/06 07:46:12;;;;;;;1.38;0.30;;;16.30;96.70;;;;;;5089940;28;20103;-78
2022/08/06 07:48:43;;;;;;;0.30;0.25;;;16.40;96.60;;;;;;5090988;28;20531;-78
2022/08/06 07:51:09;;;;;;;0.45;0.20;;;16.40;96.80;;;;;;5086613;28;20042;-77
2022/08/06 07:53:37;;;;;;;0.47;0.20;;;16.50;96.90;;;;;;5090214;28;20044;-77
2022/08/06 07:56:05;;;;;;;0.30;0.10;;;16.40;96.60;;;;;;5089277;28;20051;-78
2022/08/06 07:58:33;;;;;;;0.20;0.20;;;16.50;96.20;;;;;;5107024;28;20040;-77
2022/08/06 08:01:00;;;;;;;0.35;0.20;;;16.40;95.90;;;;;;5107420;28;20619;-77
2022/08/06 08:06:22;;;;;;;0.20;0.17;;;16.30;95.90;;;;;;5088431;28;20220;-78
2022/08/06 08:09:02;;;;;;;1.00;0.20;;;16.40;96.30;;;;;;5090226;28;20531;-78
2022/08/06 08:11:28;;;;;;;3.33;0.40;;;16.60;95.90;;;;;;5090341;28;20537;-77
2022/08/06 08:13:55;;;;;;;0.47;0.20;;;16.70;95.50;;;;;;5089204;28;20074;-77
2022/08/06 08:16:22;;;;;;;0.10;0.10;;;16.70;95.30;;;;;;5107418;28;20044;-77
2022/08/06 08:18:48;;;;;;;0.20;0.10;;;16.70;95.20;;;;;;5107222;28;20071;-77
2022/08/06 08:21:14;;;;;;;0.90;0.32;;;16.80;95.00;;;;;;5104810;28;20482;-77
2022/08/06 08:23:43;;;;;;;0.93;0.22;;;16.70;95.00;;;;;;5070361;28;20044;-78
2022/08/06 08:26:09;;;;;;;2.47;0.93;;;16.70;95.00;;;;;;5088864;28;20036;-77
2022/08/06 08:28:35;;;;;;;0.63;0.20;;;16.60;94.80;;;;;;5073259;28;20048;-78
2022/08/06 08:31:03;;;;;;;0.10;0.10;;;16.60;95.00;;;;;;5107148;28;20043;-77
2022/08/06 08:33:29;;;;;;;0.10;0.10;;;16.60;94.80;;;;;;5106667;28;20051;-77
2022/08/06 08:35:55;;;;;;;1.52;0.20;;;16.70;94.40;;;;;;5104902;28;20044;-77
2022/08/06 08:38:21;;;;;;;0.85;0.17;;;16.80;94.20;;;;;;5089233;28;20032;-78
2022/08/06 08:40:49;;;;;;;1.50;0.40;;;16.90;94.20;;;;;;5089019;28;20491;-77
2022/08/06 08:43:19;;;;;;;0.60;0.20;;;17.10;93.70;;;;;;5107065;28;20529;-78
2022/08/06 08:45:49;;;;;;;0.47;0.28;;;17.30;93.70;;;;;;5106955;28;20043;-78
2022/08/06 08:48:16;;;;;;;2.92;0.20;;;17.50;92.70;;;;;;5088251;28;20488;-78
2022/08/06 08:50:43;;;;;;;1.15;0.30;;;17.60;92.20;;;;;;5088514;28;20474;-77
2022/08/06 08:53:13;;;;;;;0.52;0.30;;;17.60;92.20;;;;;;5088445;28;20398;-77
2022/08/06 08:55:40;;;;;;;1.60;0.30;;;17.50;91.90;;;;;;5089741;28;20145;-77
2022/08/06 08:58:06;;;;;;;0.52;0.32;;;17.50;92.20;;;;;;5089864;28;20079;-77
2022/08/06 09:00:33;;;;;;;0.10;0.10;;;17.40;92.20;;;;;;5089346;28;20405;-77
2022/08/06 09:03:02;;;;;;;1.40;0.32;;;17.40;92.00;;;;;;5087633;28;20493;-77
2022/08/06 09:05:27;;;;;;;0.30;0.20;;;17.30;92.00;;;;;;5104191;28;20051;-77
2022/08/06 09:07:53;;;;;;;0.93;0.22;;;17.20;92.00;;;;;;5086490;28;20048;-77
2022/08/06 09:10:21;;;;;;;0.77;0.20;;;17.20;92.00;;;;;;5106496;28;20036;-77
2022/08/06 09:12:47;;;;;;;0.60;0.38;;;17.10;91.90;;;;;;5088355;28;20165;-77
2022/08/06 09:15:15;;;;;;;2.08;0.10;;;17.30;92.20;;;;;;5106249;28;20061;-77
2022/08/06 09:17:41;;;;;;;0.68;0.20;;;17.40;91.80;;;;;;5089182;28;20181;-77
2022/08/06 09:20:07;;;;;;;0.25;0.13;;;17.50;91.60;;;;;;5089079;28;20135;-77
2022/08/06 09:22:32;;;;;;;0.17;0.10;;;17.60;91.00;;;;;;5095614;28;20036;-77
2022/08/06 09:24:58;;;;;;;0.68;0.30;;;17.80;91.00;;;;;;5097470;28;20401;-75
2022/08/06 09:27:33;;;;;;;1.15;0.38;;;17.80;90.50;;;;;;5100558;28;20076;-75
2022/08/06 09:30:01;;;;;;;0.75;0.38;;;17.90;89.40;;;;;;5082496;28;20055;-76
2022/08/06 09:32:44;;;;;;;1.45;0.50;;;18.00;90.30;;;;;;5079184;28;20036;-75
2022/08/06 09:35:22;;;;;;;0.88;0.50;;;17.90;89.10;;;;;;5092360;27;20048;-75
2022/08/06 09:37:49;;;;;;;1.23;0.40;;;17.80;89.60;;;;;;5076618;28;20430;-75
2022/08/06 09:40:17;;;;;;;1.08;0.43;;;17.70;90.10;;;;;;5080726;28;20162;-75
2022/08/06 09:42:50;;;;;;;0.50;0.35;;;17.60;90.40;;;;;;5094010;28;20044;-75
2022/08/06 09:45:17;;;;;;;1.00;0.50;;;17.60;90.30;;;;;;5082872;28;20389;-75
2022/08/06 09:47:48;;;;;;;0.88;0.43;;;17.50;90.60;;;;;;5078963;28;20113;-75
2022/08/06 09:50:14;;;;;;;0.63;0.40;;;17.50;90.20;;;;;;5072905;28;20400;-75
2022/08/06 09:52:40;;;;;;;1.52;0.50;;;17.50;90.30;;;;;;5082380;28;20047;-75
2022/08/06 09:55:06;;;;;;;1.98;0.65;;;17.50;90.00;;;;;;5081684;28;20400;-75
2022/08/06 09:57:44;;;;;;;1.38;0.40;;;17.50;89.80;;;;;;5083119;28;20048;-75
2022/08/06 10:00:11;;;;;;;1.13;0.40;;;17.60;88.30;;;;;;5081298;28;20125;-74
2022/08/06 10:02:38;;;;;;;1.58;0.43;;;17.80;87.20;;;;;;5081547;28;20101;-75
2022/08/06 10:05:13;;;;;;;2.30;0.55;;;18.00;86.80;;;;;;5097958;28;20645;-74
2022/08/06 10:07:39;;;;;;;0.80;0.52;;;18.00;84.50;;;;;;5060261;28;20055;-74
2022/08/06 10:10:06;;;;;;;1.33;0.65;;;18.00;86.20;;;;;;5077845;28;20548;-75
2022/08/06 10:12:32;;;;;;;1.00;0.45;;;18.00;85.80;;;;;;5076502;28;20051;-75
2022/08/06 10:14:59;;;;;;;1.80;0.55;;;18.00;86.10;;;;;;5081248;28;20443;-75
2022/08/06 10:17:25;;;;;;;1.23;0.50;;;17.90;86.80;;;;;;5065316;28;20084;-75
2022/08/06 10:20:06;;;;;;;1.08;0.50;;;17.80;86.60;;;;;;5080122;28;20065;-75
2022/08/06 10:22:32;;;;;;;1.05;0.50;;;17.80;84.80;;;;;;5081352;28;20388;-74
2022/08/06 10:25:02;;;;;;;0.80;0.32;;;17.70;87.20;;;;;;5091669;28;20039;-75
2022/08/06 10:27:33;;;;;;;3.70;0.40;;;17.70;87.40;;;;;;5101273;28;20047;-74
2022/08/06 10:30:03;;;;;;;0.73;0.60;;;17.70;87.50;;;;;;5082124;28;20054;-75
2022/08/06 10:32:53;;;;;;;2.53;0.43;;;17.80;87.70;;;;;;5084824;28;20036;-74
2022/08/06 10:35:21;;;;;;;1.60;0.50;;;17.80;88.00;;;;;;5096533;28;20052;-76
2022/08/06 10:37:51;;;;;;;3.83;0.40;;;18.00;88.00;;;;;;5077562;28;20389;-75
2022/08/06 10:40:20;;;;;;;0.50;0.30;;;18.10;87.60;;;;;;5077482;28;20039;-76
2022/08/06 10:42:46;;;;;;;0.32;0.30;;;18.30;87.50;;;;;;5077061;28;20096;-75
2022/08/06 10:45:13;;;;;;;1.98;0.95;;;18.40;86.70;;;;;;5066648;28;20044;-75
2022/08/06 10:47:40;;;;;;;0.80;0.40;;;18.50;86.60;;;;;;5097099;28;20123;-76
2022/08/06 10:50:09;;;;;;;1.13;0.40;;;18.60;85.40;;;;;;5081938;28;20031;-75
2022/08/06 10:52:35;;;;;;;2.78;0.40;;;18.60;84.60;;;;;;5078966;28;20036;-75
2022/08/06 10:55:04;;;;;;;2.33;0.40;;;18.60;84.80;;;;;;5077176;28;20046;-75
2022/08/06 10:57:32;;;;;;;1.25;0.55;;;18.70;83.30;;;;;;5062260;28;20036;-76
2022/08/06 11:00:00;;;;;;;0.35;0.20;;;18.70;83.00;;;;;;5093689;28;20046;-75
2022/08/06 11:02:38;;;;;;;1.85;0.40;;;18.70;82.50;;;;;;5076061;28;20035;-76
2022/08/06 11:05:15;;;;;;;0.90;0.40;;;18.60;80.50;;;;;;5080676;28;20068;-76
2022/08/06 11:08:02;;;;;;;0.52;0.22;;;18.60;81.40;;;;;;5079707;28;20118;-75
2022/08/06 11:10:53;;;;;;;0.25;0.20;;;18.50;82.50;;;;;;5085190;28;20055;-75
2022/08/06 11:13:39;;;;;;;0.85;0.30;;;18.50;81.50;;;;;;5082761;28;20051;-76
2022/08/06 11:16:05;;;;;;;0.70;0.32;;;18.40;80.10;;;;;;5080923;28;20025;-75
2022/08/06 11:18:31;;;;;;;1.02;0.38;;;18.40;83.10;;;;;;5081440;28;20036;-75
2022/08/06 11:21:00;;;;;;;0.52;0.30;;;18.20;82.90;;;;;;5080222;28;20108;-75
2022/08/06 11:23:30;;;;;;;1.35;0.50;;;18.30;83.30;;;;;;5081460;28;20044;-73
2022/08/06 11:25:59;;;;;;;0.68;0.45;;;18.20;82.30;;;;;;5078667;28;20032;-75
2022/08/06 11:28:30;;;;;;;0.88;0.40;;;18.30;83.40;;;;;;5092774;28;20036;-75
2022/08/06 11:30:58;;;;;;;1.67;0.60;;;18.30;81.80;;;;;;5097799;28;20474;-76
2022/08/06 11:33:33;;;;;;;1.15;0.50;;;18.30;83.00;;;;;;5080505;28;20032;-76
2022/08/06 11:36:04;;;;;;;1.30;0.55;;;18.30;81.10;;;;;;5097584;28;20618;-75
2022/08/06 11:38:57;;;;;;;2.28;0.60;;;18.40;81.20;;;;;;5074334;28;20040;-76
2022/08/06 11:41:42;;;;;;;3.95;0.50;;;18.40;77.50;;;;;;5076345;28;20077;-70
2022/08/06 11:44:08;;;;;;;0.73;0.40;;;18.40;79.70;;;;;;5078394;28;20057;-75
2022/08/06 11:46:39;;;;;;;2.20;0.98;;;18.40;80.90;;;;;;5082211;28;20044;-75
2022/08/06 11:49:18;;;;;;;2.10;0.98;;;18.50;79.30;;;;;;5081302;28;20032;-75
2022/08/06 11:51:58;;;;;;;0.90;0.60;;;18.50;78.60;;;;;;5080096;28;20507;-75
2022/08/06 11:54:32;;;;;;;1.05;0.30;;;18.70;75.50;;;;;;5078252;28;20047;-75
2022/08/06 11:56:58;;;;;;;1.38;0.50;;;18.70;76.30;;;;;;5094872;28;20043;-75
2022/08/06 11:59:25;;;;;;;1.20;0.38;;;18.80;77.20;;;;;;5094370;28;20105;-75
2022/08/06 12:01:50;;;;;;;0.80;0.55;;;18.80;77.40;;;;;;5090001;28;20040;-75
2022/08/06 12:04:56;;;;;;;1.45;0.70;;;18.90;77.00;;;;;;5077336;28;20109;-75
2022/08/06 12:07:32;;;;;;;0.75;0.50;;;19.00;73.50;;;;;;5077217;28;20048;-75
2022/08/06 12:10:09;;;;;;;1.73;0.55;;;18.90;74.40;;;;;;5078354;28;20533;-75
2022/08/06 12:12:50;;;;;;;1.17;0.60;;;19.00;76.20;;;;;;5082282;28;20059;-75
2022/08/06 12:15:16;;;;;;;0.82;0.45;;;19.00;74.00;;;;;;5099298;28;20486;-75
2022/08/06 12:17:57;;;;;;;1.73;0.60;;;19.00;76.30;;;;;;5086850;28;20043;-74
2022/08/06 12:20:43;;;;;;;0.70;0.30;;;19.00;73.70;;;;;;5085445;28;20047;-75
2022/08/06 12:23:09;;;;;;;;;;;19.00;74.20;;;;;;5083836;28;20039;-74
2022/08/06 12:25:40;;;;;;;1.40;0.65;;;19.00;73.10;;;;;;5081254;28;19927;-74
2022/08/06 12:28:08;;;;;;;0.80;0.40;;;19.00;76.70;;;;;;5081384;28;20482;-74
2022/08/06 12:30:47;;;;;;;1.63;0.70;;;19.00;77.40;;;;;;5079727;28;20044;-75
2022/08/06 12:33:13;;;;;;;1.60;0.70;;;19.00;75.00;;;;;;5082001;28;20385;-71
2022/08/06 12:36:00;;;;;;;0.95;0.50;;;19.00;77.00;;;;;;5085305;28;20028;-74
2022/08/06 12:38:30;;;;;;;1.63;0.50;;;19.10;74.20;;;;;;5076095;28;20040;-74
2022/08/06 12:40:57;;;;;;;1.45;0.60;;;19.00;76.60;;;;;;5094262;28;20047;-74
2022/08/06 12:43:24;;;;;;;1.40;0.60;;;19.10;77.00;;;;;;5079970;28;20043;-74
2022/08/06 12:45:57;;;;;;;0.77;0.45;;;19.10;77.20;;;;;;5100710;27;20043;-74
2022/08/06 12:48:23;;;;;;;1.67;0.60;;;19.10;76.00;;;;;;5084203;28;20036;-74
2022/08/06 12:50:48;;;;;;;1.65;0.80;;;19.20;76.80;;;;;;5084776;28;20040;-74
2022/08/06 12:53:17;;;;;;;1.30;0.60;;;19.20;76.60;;;;;;5079494;28;20036;-74
2022/08/06 12:55:45;;;;;;;1.20;0.50;;;19.20;75.50;;;;;;5085581;28;20048;-75
2022/08/06 12:58:15;;;;;;;1.27;0.60;;;19.20;75.50;;;;;;5113711;27;20041;-74
2022/08/06 13:00:42;;;;;;;1.73;0.77;;;19.30;74.90;;;;;;5083811;28;20144;-74
2022/08/06 13:03:09;;;;;;;0.85;0.50;;;19.30;75.70;;;;;;5081718;28;20040;-74
2022/08/06 13:05:36;;;;;;;1.27;0.60;;;19.40;76.00;;;;;;5096274;27;20047;-74
2022/08/06 13:08:02;;;;;;;1.20;0.60;;;19.40;75.10;;;;;;5065429;28;20032;-70